createdAt,value
2023-03-01T00:00:33.138Z,0.85
2023-03-01T00:11:07.519Z,0.85
2023-03-01T00:21:31.767Z,0.90
2023-03-01T00:31:56.105Z,1.04
2023-03-01T00:42:20.341Z,0.77
2023-03-01T00:52:44.751Z,0.60
2023-03-01T01:03:08.913Z,0.54
2023-03-01T01:13:33.899Z,0.38
2023-03-01T01:23:59.736Z,0.13
2023-03-01T01:34:24.321Z,0.13
2023-03-01T01:44:49.399Z,0.10
2023-03-01T01:55:21.371Z,0.07
2023-03-01T02:05:55.559Z,0.09
2023-03-01T02:16:20.242Z,0.07
2023-03-01T02:26:50.819Z,-0.01
2023-03-01T02:37:21.953Z,-0.10
2023-03-01T02:47:46.296Z,-0.12
2023-03-01T02:58:10.892Z,-0.10
2023-03-01T03:08:35.075Z,-0.12
2023-03-01T03:19:05.401Z,-0.28
2023-03-01T03:29:29.660Z,-0.31
2023-03-01T03:39:55.183Z,-0.35
2023-03-01T03:50:19.975Z,-0.32
2023-03-01T04:00:45.428Z,-0.08
2023-03-01T04:11:27.839Z,-0.09
2023-03-01T04:21:52.160Z,-0.35
2023-03-01T04:32:17.065Z,-0.39
2023-03-01T04:42:41.340Z,-0.40
2023-03-01T04:53:05.545Z,-0.51
2023-03-01T05:03:29.763Z,-0.60
2023-03-01T05:13:55.390Z,-0.73
2023-03-01T05:24:19.628Z,-0.88
2023-03-01T05:34:44.492Z,-0.98
2023-03-01T05:45:11.169Z,-0.99
2023-03-01T05:55:36.132Z,-1.03
2023-03-01T06:06:00.548Z,-0.90
2023-03-01T06:16:24.759Z,-0.84
2023-03-01T06:26:48.947Z,-0.75
2023-03-01T06:37:13.165Z,-0.61
2023-03-01T06:47:37.435Z,-0.40
2023-03-01T06:58:03.277Z,-0.12
2023-03-01T07:08:27.591Z,0.39
2023-03-01T07:18:52.623Z,0.91
2023-03-01T07:29:18.492Z,1.44
2023-03-01T07:39:43.224Z,1.85
2023-03-01T07:50:10.910Z,2.24
2023-03-01T08:00:35.174Z,2.59
2023-03-01T08:11:00.795Z,2.98
2023-03-01T08:21:25.736Z,3.24
2023-03-01T08:31:50.712Z,3.46
2023-03-01T08:42:15.097Z,3.66
2023-03-01T08:52:40.160Z,3.73
2023-03-01T09:03:05.326Z,3.57
2023-03-01T09:13:31.541Z,3.69
2023-03-01T09:23:58.252Z,3.80
2023-03-01T09:34:23.643Z,3.90
2023-03-01T09:44:52.624Z,3.87
2023-03-01T09:55:27.636Z,3.88
2023-03-01T10:06:06.475Z,4.09
2023-03-01T10:16:35.305Z,4.10
2023-03-01T10:27:04.123Z,4.28
2023-03-01T10:37:28.889Z,4.49
2023-03-01T10:48:06.682Z,4.60
2023-03-01T10:58:31.951Z,4.73
2023-03-01T11:08:57.410Z,4.84
2023-03-01T11:19:23.283Z,4.93
2023-03-01T11:29:53.322Z,5.02
2023-03-01T11:40:22.829Z,5.20
2023-03-01T11:50:49.237Z,5.36
2023-03-01T12:01:33.738Z,5.35
2023-03-01T12:12:13.688Z,5.41
2023-03-01T12:22:53.236Z,5.51
2023-03-01T12:33:31.035Z,5.50
2023-03-01T12:44:07.416Z,5.48
2023-03-01T12:54:34.002Z,5.59
2023-03-01T13:05:24.569Z,5.62
2023-03-01T13:15:51.711Z,5.58
2023-03-01T13:26:17.862Z,5.59
2023-03-01T13:36:50.584Z,5.75
2023-03-01T13:47:18.862Z,5.84
2023-03-01T13:57:47.398Z,5.94
2023-03-01T14:08:24.640Z,5.97
2023-03-01T14:18:57.498Z,6.01
2023-03-01T14:29:35.050Z,5.96
2023-03-01T14:40:01.380Z,6.04
2023-03-01T14:50:29.392Z,6.11
2023-03-01T15:00:56.007Z,6.13
2023-03-01T15:11:24.895Z,6.13
2023-03-01T15:21:50.207Z,6.19
2023-03-01T15:32:28.687Z,6.19
2023-03-01T15:42:52.997Z,6.14
2023-03-01T15:53:18.432Z,6.18
2023-03-01T16:03:43.295Z,6.14
2023-03-01T16:14:09.555Z,6.27
2023-03-01T16:24:36.307Z,6.55
2023-03-01T16:35:00.509Z,6.54
2023-03-01T16:45:25.573Z,6.12
2023-03-01T16:55:56.574Z,5.92
2023-03-01T17:06:25.136Z,5.62
2023-03-01T17:16:49.424Z,5.73
2023-03-01T17:27:15.496Z,6.01
2023-03-01T17:37:52.829Z,6.13
2023-03-01T17:48:17.426Z,6.20
2023-03-01T17:58:42.558Z,6.26
2023-03-01T18:09:08.533Z,6.30
2023-03-01T18:19:33.923Z,6.27
2023-03-01T18:29:59.078Z,6.23
2023-03-01T18:40:24.016Z,6.05
2023-03-01T18:50:48.889Z,5.49
2023-03-01T19:01:16.222Z,5.23
2023-03-01T19:11:40.486Z,4.77
2023-03-01T19:22:06.374Z,4.26
2023-03-01T19:32:32.369Z,3.87
2023-03-01T19:42:56.679Z,3.58
2023-03-01T19:53:21.704Z,3.35
2023-03-01T20:03:46.507Z,3.13
2023-03-01T20:14:14.067Z,2.98
2023-03-01T20:24:38.371Z,2.71
2023-03-01T20:35:03.627Z,2.55
2023-03-01T20:45:28.386Z,2.48
2023-03-01T20:55:52.612Z,2.37
2023-03-01T21:06:17.277Z,2.38
2023-03-01T21:16:45.048Z,2.28
2023-03-01T21:27:09.637Z,2.21
2023-03-01T21:37:33.853Z,2.01
2023-03-01T21:47:58.052Z,2.03
2023-03-01T21:58:22.817Z,1.86
2023-03-01T22:08:48.099Z,1.69
2023-03-01T22:19:13.609Z,1.41
2023-03-01T22:29:37.986Z,1.39
2023-03-01T22:40:02.842Z,1.40
2023-03-01T22:50:27.151Z,1.28
2023-03-01T23:00:51.352Z,1.22
2023-03-01T23:11:17.458Z,1.07
2023-03-01T23:21:45.968Z,0.89
2023-03-01T23:32:11.006Z,0.74
2023-03-01T23:42:35.244Z,0.67
2023-03-01T23:52:59.424Z,0.63
